createdAt,value
2018-03-31T00:01:17.517Z,6.87
2018-03-31T00:03:44.478Z,7.07
2018-03-31T00:06:11.649Z,7.53
2018-03-31T00:08:38.600Z,5.60
2018-03-31T00:11:06.327Z,6.57
2018-03-31T00:13:33.290Z,6.00
2018-03-31T00:16:01.333Z,5.80
2018-03-31T00:18:28.881Z,7.30
2018-03-31T00:20:55.850Z,7.43
2018-03-31T00:23:23.243Z,7.70
2018-03-31T00:25:50.964Z,7.17
2018-03-31T00:28:18.033Z,6.67
2018-03-31T00:30:48.411Z,7.00
2018-03-31T00:33:15.404Z,7.90
2018-03-31T00:35:42.359Z,6.90
2018-03-31T00:38:09.314Z,7.47
2018-03-31T00:40:37.457Z,8.00
2018-03-31T00:43:04.421Z,6.40
2018-03-31T00:45:31.373Z,9.23
2018-03-31T00:47:59.557Z,10.17
2018-03-31T00:50:27.323Z,7.93
2018-03-31T00:52:55.050Z,8.23
2018-03-31T00:55:22.098Z,8.10
2018-03-31T00:57:49.934Z,8.27
2018-03-31T01:00:18.546Z,7.40
2018-03-31T01:02:45.514Z,7.30
2018-03-31T01:05:13.236Z,8.17
2018-03-31T01:07:40.474Z,8.20
2018-03-31T01:10:07.449Z,9.30
2018-03-31T01:12:34.410Z,8.53
2018-03-31T01:15:01.769Z,7.83
2018-03-31T01:17:28.712Z,9.57
2018-03-31T01:19:56.104Z,9.43
2018-03-31T01:22:23.058Z,9.07
2018-03-31T01:24:50.026Z,11.23
2018-03-31T01:27:17.405Z,9.90
2018-03-31T01:29:44.366Z,12.17
2018-03-31T01:32:12.204Z,11.57
2018-03-31T01:34:39.163Z,14.27
2018-03-31T01:37:06.140Z,14.37
2018-03-31T01:39:34.212Z,12.07
2018-03-31T01:42:01.314Z,12.37
2018-03-31T01:44:28.273Z,13.10
2018-03-31T01:46:55.633Z,11.37
2018-03-31T01:49:23.741Z,13.60
2018-03-31T01:51:50.729Z,13.50
2018-03-31T01:54:19.046Z,15.10
2018-03-31T01:56:47.172Z,14.47
2018-03-31T01:59:14.232Z,14.57
2018-03-31T02:01:41.190Z,13.60
2018-03-31T02:04:08.225Z,14.53
2018-03-31T02:06:35.402Z,15.13
2018-03-31T02:09:03.216Z,15.53
2018-03-31T02:11:31.297Z,14.87
2018-03-31T02:13:58.264Z,15.90
2018-03-31T02:16:25.298Z,14.87
2018-03-31T02:18:53.777Z,14.90
2018-03-31T02:21:20.751Z,16.37
2018-03-31T02:23:48.474Z,17.97
2018-03-31T02:26:15.458Z,16.83
2018-03-31T02:28:43.187Z,17.10
2018-03-31T02:31:10.155Z,17.53
2018-03-31T02:33:37.141Z,17.47
2018-03-31T02:36:04.104Z,16.37
2018-03-31T02:38:31.523Z,17.27
2018-03-31T02:40:59.694Z,17.90
2018-03-31T02:43:27.528Z,15.63
2018-03-31T02:45:55.259Z,16.77
2018-03-31T02:48:22.233Z,18.47
2018-03-31T02:50:49.193Z,16.30
2018-03-31T02:53:16.164Z,19.30
2018-03-31T02:55:43.888Z,18.00
2018-03-31T02:58:10.934Z,18.57
2018-03-31T03:00:37.920Z,20.63
2018-03-31T03:03:05.639Z,18.70
2018-03-31T03:05:32.593Z,24.03
2018-03-31T03:08:00.185Z,23.20
2018-03-31T03:10:28.278Z,23.77
2018-03-31T03:12:55.263Z,22.07
2018-03-31T03:15:22.989Z,22.77
2018-03-31T03:17:49.948Z,21.37
2018-03-31T03:20:16.914Z,20.23
2018-03-31T03:22:43.901Z,20.23
2018-03-31T03:25:11.721Z,20.67
2018-03-31T03:27:38.772Z,22.10
2018-03-31T03:30:05.736Z,22.20
2018-03-31T03:32:32.757Z,26.83
2018-03-31T03:34:59.748Z,22.93
2018-03-31T03:37:27.474Z,22.80
2018-03-31T03:39:55.200Z,23.07
2018-03-31T03:42:22.163Z,22.97
2018-03-31T03:44:49.940Z,29.43
2018-03-31T03:47:17.360Z,22.63
2018-03-31T03:49:44.349Z,23.50
2018-03-31T03:52:11.393Z,25.60
2018-03-31T03:54:38.350Z,24.13
2018-03-31T03:57:06.825Z,25.70
2018-03-31T03:59:33.836Z,25.63
2018-03-31T04:02:00.975Z,21.33
2018-03-31T04:04:27.922Z,21.30
2018-03-31T04:06:54.886Z,22.40
2018-03-31T04:09:22.547Z,17.33
2018-03-31T04:11:49.509Z,18.83
2018-03-31T04:14:16.477Z,18.10
2018-03-31T04:16:43.669Z,27.57
2018-03-31T04:19:10.637Z,30.20
2018-03-31T04:21:37.690Z,27.47
2018-03-31T04:24:04.653Z,27.70
2018-03-31T04:26:31.613Z,26.07
2018-03-31T04:28:59.333Z,23.20
2018-03-31T04:31:26.394Z,18.83
2018-03-31T04:33:54.531Z,30.63
2018-03-31T04:36:21.513Z,39.80
2018-03-31T04:38:48.474Z,37.50
2018-03-31T04:41:15.505Z,31.33
2018-03-31T04:43:42.749Z,33.90
2018-03-31T04:46:09.709Z,34.87
2018-03-31T04:48:36.674Z,31.37
2018-03-31T04:51:04.409Z,34.30
2018-03-31T04:53:31.433Z,34.77
2018-03-31T04:55:58.500Z,36.57
2018-03-31T04:58:25.487Z,34.10
2018-03-31T05:00:53.225Z,33.57
2018-03-31T05:03:20.220Z,31.07
2018-03-31T05:05:47.173Z,32.57
2018-03-31T05:08:14.139Z,33.20
2018-03-31T05:10:41.095Z,34.07
2018-03-31T05:13:09.679Z,31.00
2018-03-31T05:15:38.141Z,26.70
2018-03-31T05:18:05.754Z,31.47
2018-03-31T05:20:33.582Z,42.63
2018-03-31T05:23:00.541Z,41.17
2018-03-31T05:25:27.553Z,38.13
2018-03-31T05:27:54.505Z,40.23
2018-03-31T05:30:21.465Z,38.07
2018-03-31T05:32:48.554Z,33.90
2018-03-31T05:35:17.738Z,36.00
2018-03-31T05:37:45.980Z,37.50
2018-03-31T05:40:12.943Z,37.30
2018-03-31T05:42:41.451Z,38.57
2018-03-31T05:45:08.418Z,39.13
2018-03-31T05:47:35.384Z,35.47
2018-03-31T05:50:02.792Z,33.73
2018-03-31T05:52:30.522Z,33.50
2018-03-31T05:54:58.276Z,36.17
2018-03-31T05:57:25.317Z,36.73
2018-03-31T05:59:52.397Z,37.40
2018-03-31T06:02:19.337Z,37.70
2018-03-31T06:04:46.362Z,32.20
2018-03-31T06:07:13.411Z,30.47
2018-03-31T06:09:40.423Z,28.77
2018-03-31T06:12:07.394Z,30.37
2018-03-31T06:14:35.100Z,32.53
2018-03-31T06:17:02.829Z,25.97
2018-03-31T06:19:30.370Z,28.77
2018-03-31T06:21:57.346Z,29.50
2018-03-31T06:24:24.385Z,29.43
2018-03-31T06:26:52.260Z,26.73
2018-03-31T06:29:22.781Z,23.87
2018-03-31T06:31:50.134Z,22.37
2018-03-31T06:34:17.137Z,21.43
2018-03-31T06:36:44.133Z,19.57
2018-03-31T06:39:11.164Z,20.07
2018-03-31T06:41:38.567Z,16.47
2018-03-31T06:44:06.641Z,16.07
2018-03-31T06:46:34.626Z,14.43
2018-03-31T06:49:01.911Z,12.97
2018-03-31T06:51:28.967Z,12.40
2018-03-31T06:53:55.925Z,12.27
2018-03-31T06:56:22.893Z,11.90
2018-03-31T06:58:50.425Z,11.23
2018-03-31T07:01:17.404Z,13.17
2018-03-31T07:03:44.886Z,11.33
2018-03-31T07:06:11.846Z,13.17
2018-03-31T07:08:38.970Z,10.20
2018-03-31T07:11:05.953Z,10.53
2018-03-31T07:13:32.908Z,11.97
2018-03-31T07:16:00.298Z,11.83
2018-03-31T07:18:27.261Z,13.37
2018-03-31T07:20:54.231Z,12.97
2018-03-31T07:23:21.290Z,11.03
2018-03-31T07:25:48.335Z,11.50
2018-03-31T07:28:15.306Z,11.23
2018-03-31T07:30:43.030Z,10.83
2018-03-31T07:33:10.290Z,10.27
2018-03-31T07:35:37.250Z,9.30
2018-03-31T07:38:04.293Z,10.53
2018-03-31T07:40:31.257Z,8.87
2018-03-31T07:42:59.097Z,8.47
2018-03-31T07:45:26.062Z,8.10
2018-03-31T07:47:53.850Z,8.13
2018-03-31T07:50:21.677Z,7.30
2018-03-31T07:52:49.089Z,7.57
2018-03-31T07:55:16.058Z,7.63
2018-03-31T07:57:43.125Z,8.20
2018-03-31T08:00:10.165Z,7.60
2018-03-31T08:02:37.121Z,7.85
2018-03-31T08:05:08.065Z,6.93
2018-03-31T08:07:35.097Z,6.78
2018-03-31T08:10:02.196Z,6.77
2018-03-31T08:12:29.181Z,6.78
2018-03-31T08:14:56.145Z,6.60
2018-03-31T08:17:23.178Z,6.70
2018-03-31T08:19:50.253Z,6.13
2018-03-31T08:22:17.997Z,6.77
2018-03-31T08:24:44.953Z,6.87
2018-03-31T08:27:11.909Z,7.23
2018-03-31T08:29:39.641Z,7.73
2018-03-31T08:32:07.212Z,6.50
2018-03-31T08:34:34.445Z,6.65
2018-03-31T08:37:01.390Z,6.60
2018-03-31T08:39:28.436Z,8.93
2018-03-31T08:41:55.698Z,6.45
2018-03-31T08:44:23.121Z,6.55
2018-03-31T08:46:50.201Z,6.32
2018-03-31T08:49:17.247Z,6.40
2018-03-31T08:51:44.286Z,6.35
2018-03-31T08:54:11.338Z,5.72
2018-03-31T08:56:38.353Z,5.37
2018-03-31T08:59:05.332Z,6.20
2018-03-31T09:01:32.294Z,5.28
2018-03-31T09:03:59.322Z,5.80
2018-03-31T09:06:26.373Z,5.43
2018-03-31T09:08:54.119Z,4.82
2018-03-31T09:11:21.086Z,5.37
2018-03-31T09:13:48.129Z,4.10
2018-03-31T09:16:15.673Z,4.30
2018-03-31T09:18:43.000Z,4.45
2018-03-31T09:21:09.950Z,3.75
2018-03-31T09:23:36.930Z,4.18
2018-03-31T09:26:04.326Z,4.18
2018-03-31T09:28:31.509Z,3.80
2018-03-31T09:31:00.944Z,4.00
2018-03-31T09:33:28.254Z,3.72
2018-03-31T09:35:55.214Z,3.72
2018-03-31T09:38:24.653Z,3.20
2018-03-31T09:40:52.173Z,4.10
2018-03-31T09:43:19.142Z,4.10
2018-03-31T09:45:46.120Z,3.95
2018-03-31T09:48:13.861Z,4.00
2018-03-31T09:50:41.400Z,3.30
2018-03-31T09:53:08.445Z,3.75
2018-03-31T09:55:35.601Z,3.95
2018-03-31T09:58:02.821Z,3.53
2018-03-31T10:00:35.741Z,3.95
2018-03-31T10:03:02.745Z,3.28
2018-03-31T10:05:29.732Z,3.97
2018-03-31T10:07:56.700Z,3.70
2018-03-31T10:10:24.431Z,4.28
2018-03-31T10:12:51.393Z,3.78
2018-03-31T10:15:18.433Z,4.18
2018-03-31T10:17:45.399Z,3.17
2018-03-31T10:20:13.654Z,3.47
2018-03-31T10:22:40.614Z,3.42
2018-03-31T10:25:07.591Z,3.90
2018-03-31T10:27:34.592Z,3.35
2018-03-31T10:30:02.005Z,3.00
2018-03-31T10:32:28.965Z,4.05
2018-03-31T10:34:55.930Z,3.33
2018-03-31T10:37:22.886Z,2.95
2018-03-31T10:39:49.921Z,2.90
2018-03-31T10:42:17.057Z,2.90
2018-03-31T10:44:44.630Z,2.17
2018-03-31T10:47:11.593Z,1.52
2018-03-31T10:49:38.643Z,3.30
2018-03-31T10:52:05.994Z,2.45
2018-03-31T10:54:32.953Z,2.20
2018-03-31T10:57:00.686Z,3.08
2018-03-31T10:59:28.898Z,2.62
2018-03-31T11:01:56.970Z,1.67
2018-03-31T11:04:25.300Z,1.90
2018-03-31T11:06:52.557Z,1.55
2018-03-31T11:09:19.635Z,1.65
2018-03-31T11:11:47.474Z,1.40
2018-03-31T11:14:15.234Z,1.80
2018-03-31T11:16:42.973Z,1.60
2018-03-31T11:19:10.520Z,1.40
2018-03-31T11:21:37.485Z,1.50
2018-03-31T11:24:04.562Z,2.40
2018-03-31T11:26:31.850Z,1.58
2018-03-31T11:29:00.046Z,1.55
2018-03-31T11:31:27.124Z,1.23
2018-03-31T11:33:54.099Z,1.62
2018-03-31T11:36:21.837Z,1.80
2018-03-31T11:38:48.873Z,2.05
2018-03-31T11:41:15.837Z,1.27
2018-03-31T11:43:42.799Z,1.40
2018-03-31T11:46:10.628Z,1.05
2018-03-31T11:48:37.677Z,1.05
2018-03-31T11:51:07.222Z,1.20
2018-03-31T11:53:35.047Z,1.58
2018-03-31T11:56:03.420Z,1.52
2018-03-31T11:58:30.862Z,1.50
2018-03-31T12:00:57.953Z,1.33
2018-03-31T12:03:28.478Z,1.30
2018-03-31T12:05:55.431Z,4.10
2018-03-31T12:08:23.172Z,1.17
2018-03-31T12:10:50.217Z,1.55
2018-03-31T12:13:17.177Z,5.35
2018-03-31T12:15:44.376Z,0.93
2018-03-31T12:18:11.335Z,1.00
2018-03-31T12:20:38.398Z,1.05
2018-03-31T12:23:05.997Z,0.88
2018-03-31T12:25:33.725Z,1.00
2018-03-31T12:28:01.753Z,1.77
2018-03-31T12:30:28.747Z,1.73
2018-03-31T12:32:55.788Z,1.20
2018-03-31T12:35:23.069Z,1.17
2018-03-31T12:37:50.091Z,0.80
2018-03-31T12:40:17.055Z,0.93
2018-03-31T12:42:44.086Z,2.57
2018-03-31T12:45:11.633Z,2.43
2018-03-31T12:47:39.230Z,1.20
2018-03-31T12:50:07.101Z,1.05
2018-03-31T12:52:34.907Z,0.77
2018-03-31T12:55:02.685Z,0.70
2018-03-31T12:57:30.110Z,1.17
2018-03-31T12:59:57.862Z,1.37
2018-03-31T13:02:24.910Z,1.02
2018-03-31T13:04:52.057Z,1.10
2018-03-31T13:07:19.061Z,1.08
2018-03-31T13:09:46.025Z,1.10
2018-03-31T13:12:13.804Z,1.25
2018-03-31T13:14:41.544Z,2.25
2018-03-31T13:17:08.499Z,1.87
2018-03-31T13:19:36.349Z,1.37
2018-03-31T13:22:03.317Z,3.22
2018-03-31T13:24:32.238Z,0.95
2018-03-31T13:26:59.413Z,1.15
2018-03-31T13:29:26.475Z,1.10
2018-03-31T13:31:53.685Z,1.17
2018-03-31T13:34:20.666Z,1.25
2018-03-31T13:36:47.627Z,1.50
2018-03-31T13:39:14.590Z,0.93
2018-03-31T13:41:42.407Z,1.25
2018-03-31T13:44:09.806Z,0.80
2018-03-31T13:46:37.541Z,1.00
2018-03-31T13:49:06.833Z,1.42
2018-03-31T13:51:35.101Z,0.70
2018-03-31T13:54:03.982Z,1.00
2018-03-31T13:56:31.057Z,1.00
2018-03-31T13:58:58.022Z,0.75
2018-03-31T14:01:25.743Z,1.80
2018-03-31T14:03:52.709Z,0.80
2018-03-31T14:06:20.230Z,0.70
2018-03-31T14:08:47.177Z,0.80
2018-03-31T14:11:14.151Z,1.00
2018-03-31T14:13:41.142Z,0.73
2018-03-31T14:16:08.175Z,1.02
2018-03-31T14:18:35.909Z,0.80
2018-03-31T14:21:02.873Z,1.33
2018-03-31T14:23:29.833Z,1.17
2018-03-31T14:25:57.628Z,1.42
2018-03-31T14:28:24.609Z,1.40
2018-03-31T14:30:51.652Z,2.33
2018-03-31T14:33:18.626Z,1.65
2018-03-31T14:35:46.493Z,1.65
2018-03-31T14:38:14.289Z,2.15
2018-03-31T14:40:41.302Z,0.70
2018-03-31T14:43:08.326Z,0.57
2018-03-31T14:45:39.249Z,0.57
2018-03-31T14:48:06.203Z,0.75
2018-03-31T14:50:33.937Z,1.15
2018-03-31T14:53:00.901Z,1.90
2018-03-31T14:55:27.916Z,0.93
2018-03-31T14:57:54.844Z,0.80
2018-03-31T15:00:22.599Z,0.63
2018-03-31T15:02:50.358Z,2.20
2018-03-31T15:05:17.317Z,2.10
2018-03-31T15:07:45.123Z,0.60
2018-03-31T15:10:12.091Z,0.80
2018-03-31T15:12:39.127Z,1.07
2018-03-31T15:15:06.084Z,1.83
2018-03-31T15:17:37.308Z,1.03
2018-03-31T15:20:04.355Z,1.17
2018-03-31T15:22:33.447Z,0.73
2018-03-31T15:25:00.413Z,1.20
2018-03-31T15:27:27.385Z,2.73
2018-03-31T15:29:55.173Z,0.80
2018-03-31T15:32:22.132Z,1.33
2018-03-31T15:34:49.678Z,1.57
2018-03-31T15:37:17.592Z,1.30
2018-03-31T15:39:44.734Z,1.40
2018-03-31T15:42:11.875Z,0.97
2018-03-31T15:44:39.038Z,1.37
2018-03-31T15:47:06.078Z,0.90
2018-03-31T15:49:34.865Z,1.58
2018-03-31T15:52:02.397Z,1.08
2018-03-31T15:54:29.383Z,1.15
2018-03-31T15:56:56.343Z,1.90
2018-03-31T15:59:24.078Z,0.77
2018-03-31T16:01:51.061Z,1.90
2018-03-31T16:04:18.580Z,1.43
2018-03-31T16:06:45.634Z,0.90
2018-03-31T16:09:12.605Z,1.23
2018-03-31T16:11:40.013Z,2.37
2018-03-31T16:14:09.620Z,1.58
2018-03-31T16:16:36.582Z,1.05
2018-03-31T16:19:03.545Z,0.93
2018-03-31T16:21:30.584Z,0.75
2018-03-31T16:23:57.625Z,1.30
2018-03-31T16:26:24.664Z,2.40
2018-03-31T16:28:52.029Z,1.63
2018-03-31T16:31:19.073Z,0.90
2018-03-31T16:33:46.025Z,1.07
2018-03-31T16:36:12.985Z,1.63
2018-03-31T16:38:42.614Z,0.63
2018-03-31T16:41:10.389Z,1.70
2018-03-31T16:43:37.354Z,1.40
2018-03-31T16:46:04.313Z,0.80
2018-03-31T16:48:31.284Z,1.63
2018-03-31T16:50:58.317Z,0.77
2018-03-31T16:53:25.286Z,0.60
2018-03-31T16:55:53.894Z,0.67
2018-03-31T16:58:21.706Z,1.90
2018-03-31T17:00:48.669Z,1.03
2018-03-31T17:03:15.645Z,1.70
2018-03-31T17:05:42.651Z,1.57
2018-03-31T17:08:09.626Z,0.97
2018-03-31T17:10:37.349Z,1.03
2018-03-31T17:13:04.402Z,1.93
2018-03-31T17:15:31.465Z,1.30
2018-03-31T17:17:58.435Z,0.60
2018-03-31T17:20:26.157Z,1.37
2018-03-31T17:22:53.216Z,1.97
2018-03-31T17:25:20.165Z,0.90
2018-03-31T17:27:47.126Z,2.60
2018-03-31T17:30:14.964Z,0.80
2018-03-31T17:32:41.913Z,1.47
2018-03-31T17:35:08.878Z,0.80
2018-03-31T17:37:37.114Z,2.20
2018-03-31T17:40:04.165Z,1.00
2018-03-31T17:42:31.120Z,2.60
2018-03-31T17:44:58.166Z,1.40
2018-03-31T17:47:25.788Z,0.80
2018-03-31T17:49:52.742Z,1.90
2018-03-31T17:52:19.714Z,1.87
2018-03-31T17:54:46.762Z,2.53
2018-03-31T17:57:13.817Z,1.60
2018-03-31T17:59:40.778Z,1.10
2018-03-31T18:02:08.501Z,0.63
2018-03-31T18:04:35.570Z,0.80
2018-03-31T18:07:02.830Z,2.77
2018-03-31T18:09:30.578Z,0.80
2018-03-31T18:11:57.625Z,1.80
2018-03-31T18:14:24.646Z,1.87
2018-03-31T18:16:51.604Z,2.20
2018-03-31T18:19:18.669Z,0.83
2018-03-31T18:21:45.765Z,1.23
2018-03-31T18:24:14.406Z,1.13
2018-03-31T18:26:41.453Z,0.60
2018-03-31T18:29:08.902Z,1.37
2018-03-31T18:31:35.877Z,1.47
2018-03-31T18:34:03.601Z,3.70
2018-03-31T18:36:30.562Z,0.90
2018-03-31T18:38:57.583Z,2.73
2018-03-31T18:41:25.333Z,0.87
2018-03-31T18:43:52.562Z,1.30
2018-03-31T18:46:20.284Z,0.70
2018-03-31T18:48:47.710Z,1.53
2018-03-31T18:51:14.662Z,2.57
2018-03-31T18:53:41.623Z,3.37
2018-03-31T18:56:09.563Z,1.00
2018-03-31T18:58:36.534Z,2.20
2018-03-31T19:01:03.489Z,2.13
2018-03-31T19:03:30.443Z,1.90
2018-03-31T19:05:57.405Z,4.30
2018-03-31T19:08:25.578Z,1.00
2018-03-31T19:10:53.304Z,2.97
2018-03-31T19:13:20.270Z,0.83
2018-03-31T19:15:48.003Z,0.97
2018-03-31T19:18:15.392Z,4.00
2018-03-31T19:20:42.345Z,1.50
2018-03-31T19:23:10.091Z,1.53
2018-03-31T19:25:38.545Z,2.10
2018-03-31T19:28:05.674Z,0.90
2018-03-31T19:30:38.283Z,3.23
2018-03-31T19:33:05.338Z,1.00
2018-03-31T19:35:37.977Z,1.53
2018-03-31T19:38:05.556Z,2.53
2018-03-31T19:40:32.509Z,2.27
2018-03-31T19:42:59.490Z,2.87
2018-03-31T19:45:27.235Z,4.77
2018-03-31T19:47:54.203Z,1.83
2018-03-31T19:50:22.030Z,1.40
2018-03-31T19:52:48.989Z,1.00
2018-03-31T19:55:15.951Z,2.37
2018-03-31T19:57:43.683Z,1.40
2018-03-31T20:00:10.633Z,7.23
2018-03-31T20:02:37.681Z,1.40
2018-03-31T20:05:04.865Z,4.30
2018-03-31T20:07:33.005Z,2.73
2018-03-31T20:10:00.741Z,3.80
2018-03-31T20:12:29.330Z,4.90
2018-03-31T20:14:56.296Z,1.27
2018-03-31T20:17:23.254Z,2.00
2018-03-31T20:19:51.714Z,1.50
2018-03-31T20:22:18.789Z,1.70
2018-03-31T20:24:46.075Z,2.40
2018-03-31T20:27:13.261Z,2.23
2018-03-31T20:29:40.323Z,3.10
2018-03-31T20:32:07.277Z,4.40
2018-03-31T20:34:34.234Z,2.27
2018-03-31T20:37:02.075Z,2.63
2018-03-31T20:39:29.041Z,1.47
2018-03-31T20:41:57.222Z,2.93
2018-03-31T20:44:24.942Z,4.87
2018-03-31T20:46:51.901Z,2.53
2018-03-31T20:49:18.857Z,2.67
2018-03-31T20:51:45.826Z,2.37
2018-03-31T20:54:13.570Z,2.30
2018-03-31T20:56:40.556Z,1.50
2018-03-31T20:59:07.526Z,1.73
2018-03-31T21:01:34.522Z,5.43
2018-03-31T21:04:02.274Z,2.40
2018-03-31T21:06:29.303Z,2.90
2018-03-31T21:08:56.311Z,1.77
2018-03-31T21:11:23.262Z,4.63
2018-03-31T21:13:52.695Z,2.00
2018-03-31T21:16:20.133Z,2.13
2018-03-31T21:18:47.113Z,1.90
2018-03-31T21:21:14.837Z,3.17
2018-03-31T21:23:42.116Z,1.93
2018-03-31T21:26:09.070Z,3.90
2018-03-31T21:28:36.034Z,2.30
2018-03-31T21:31:04.444Z,1.83
2018-03-31T21:33:31.426Z,2.67
2018-03-31T21:35:58.388Z,3.27
2018-03-31T21:38:25.594Z,1.97
2018-03-31T21:40:52.550Z,1.87
2018-03-31T21:43:19.515Z,1.37
2018-03-31T21:45:46.478Z,1.37
2018-03-31T21:48:13.504Z,2.70
2018-03-31T21:50:41.058Z,2.00
2018-03-31T21:53:10.238Z,1.67
2018-03-31T21:55:37.674Z,1.63
2018-03-31T21:58:04.657Z,4.50
2018-03-31T22:00:32.041Z,1.43
2018-03-31T22:02:59.769Z,2.30
2018-03-31T22:05:26.825Z,3.20
2018-03-31T22:07:54.280Z,1.00
2018-03-31T22:10:21.242Z,2.50
2018-03-31T22:12:48.210Z,1.67
2018-03-31T22:15:21.582Z,1.27
2018-03-31T22:17:48.538Z,1.60
2018-03-31T22:20:16.257Z,1.70
2018-03-31T22:22:43.236Z,2.50
2018-03-31T22:25:10.261Z,1.17
2018-03-31T22:27:37.226Z,1.80
2018-03-31T22:30:04.446Z,1.70
2018-03-31T22:32:31.392Z,1.40
2018-03-31T22:34:58.426Z,1.73
2018-03-31T22:37:25.386Z,3.37
2018-03-31T22:39:52.342Z,1.53
2018-03-31T22:42:19.301Z,1.97
2018-03-31T22:44:46.339Z,1.33
2018-03-31T22:47:13.378Z,3.40
2018-03-31T22:49:41.058Z,5.27
2018-03-31T22:52:08.341Z,2.37
2018-03-31T22:54:35.306Z,1.47
2018-03-31T22:57:02.292Z,2.97
2018-03-31T22:59:29.245Z,1.67
2018-03-31T23:01:56.230Z,4.43
2018-03-31T23:04:23.219Z,1.33
2018-03-31T23:06:50.170Z,2.07
2018-03-31T23:09:17.209Z,2.63
2018-03-31T23:11:44.576Z,3.37
2018-03-31T23:14:11.912Z,1.47
2018-03-31T23:16:38.872Z,1.10
2018-03-31T23:19:08.759Z,0.97
2018-03-31T23:21:35.732Z,1.43
2018-03-31T23:24:02.681Z,2.13
2018-03-31T23:26:32.593Z,1.37
2018-03-31T23:29:00.037Z,2.43
2018-03-31T23:31:28.102Z,1.23
2018-03-31T23:33:55.074Z,1.23
2018-03-31T23:36:22.314Z,1.47
2018-03-31T23:38:49.358Z,1.07
2018-03-31T23:41:16.334Z,3.00
2018-03-31T23:43:44.059Z,4.30
2018-03-31T23:46:11.005Z,1.70
2018-03-31T23:48:38.284Z,1.67
2018-03-31T23:51:05.202Z,1.43
2018-03-31T23:53:32.350Z,1.10
2018-03-31T23:55:59.829Z,2.50
2018-03-31T23:58:27.041Z,2.13
